Time;durP1;ratioP1;P1;durP2;ratioP2;P2;SDS_P1;SDS_P2;PMS_P1;PMS_P2;Temp;Humidity;BMP_temperature;BMP_pressure;BME280_temperature;BME280_humidity;BME280_pressure;Samples;Min_cycle;Max_cycle;Signal;HPM_P1;HPM_P2
2022/07/23 00:01:16;;;;;;;3.13;2.83;;;14.40;99.90;;;;;;5047983;28;20055;-79
2022/07/23 00:03:42;;;;;;;6.90;3.17;;;14.40;99.90;;;;;;5042608;28;20127;-78
2022/07/23 00:06:09;;;;;;;4.67;2.87;;;14.40;99.90;;;;;;5044841;28;20600;-79
2022/07/23 00:08:34;;;;;;;4.73;2.90;;;14.40;99.90;;;;;;5060778;28;20051;-79
2022/07/23 00:11:00;;;;;;;5.10;2.60;;;14.40;99.90;;;;;;5043234;28;20127;-79
2022/07/23 00:13:26;;;;;;;5.43;2.80;;;14.30;99.90;;;;;;5033209;28;20046;-79
2022/07/23 00:15:52;;;;;;;6.03;3.33;;;14.30;99.90;;;;;;5058913;28;20159;-83
2022/07/23 00:18:18;;;;;;;6.43;2.80;;;14.30;99.90;;;;;;5061578;28;20502;-79
2022/07/23 00:20:44;;;;;;;6.57;3.17;;;14.20;99.90;;;;;;5043078;28;20047;-79
2022/07/23 00:23:11;;;;;;;5.43;2.60;;;14.30;99.90;;;;;;5027166;28;20492;-79
2022/07/23 00:25:36;;;;;;;6.27;2.87;;;14.20;99.90;;;;;;5062126;28;20128;-80
2022/07/23 00:28:03;;;;;;;4.77;2.80;;;14.20;99.90;;;;;;5045742;28;20142;-79
2022/07/23 00:30:30;;;;;;;7.10;3.07;;;14.20;99.90;;;;;;5042820;28;20064;-79
2022/07/23 00:32:57;;;;;;;6.20;3.60;;;14.10;99.90;;;;;;5044839;28;20042;-79
2022/07/23 00:35:24;;;;;;;3.70;2.70;;;14.10;99.90;;;;;;5046979;28;20652;-79
2022/07/23 00:37:50;;;;;;;3.27;2.60;;;14.00;99.90;;;;;;5060039;28;20041;-82
2022/07/23 00:40:18;;;;;;;3.93;2.40;;;14.00;99.90;;;;;;5045491;28;20051;-79
2022/07/23 00:42:43;;;;;;;4.97;2.77;;;13.90;99.90;;;;;;5058041;28;20132;-80
2022/07/23 00:45:10;;;;;;;3.83;2.53;;;13.90;99.90;;;;;;5046615;28;20178;-79
2022/07/23 00:47:36;;;;;;;6.13;3.40;;;13.80;99.90;;;;;;5045574;28;20040;-80
2022/07/23 00:50:03;;;;;;;5.80;3.13;;;13.70;99.90;;;;;;5047031;28;20136;-79
2022/07/23 00:52:30;;;;;;;7.13;3.47;;;13.70;99.90;;;;;;5048465;28;20036;-78
2022/07/23 00:54:56;;;;;;;6.33;3.67;;;13.70;99.90;;;;;;5027669;28;20076;-82
2022/07/23 00:57:24;;;;;;;6.37;3.20;;;13.60;99.90;;;;;;5039681;28;20052;-79
2022/07/23 00:59:49;;;;;;;4.53;3.10;;;13.60;99.90;;;;;;5036239;28;20079;-79
2022/07/23 01:02:15;;;;;;;4.40;3.27;;;13.60;99.90;;;;;;5042595;28;20484;-79
2022/07/23 01:04:41;;;;;;;5.10;3.27;;;13.50;99.90;;;;;;5045856;28;20045;-80
2022/07/23 01:07:07;;;;;;;6.80;3.77;;;13.50;99.90;;;;;;5040352;28;20059;-80
2022/07/23 01:09:33;;;;;;;9.87;3.77;;;13.50;99.90;;;;;;5056705;28;20631;-79
2022/07/23 01:11:59;;;;;;;5.97;3.10;;;13.50;99.90;;;;;;5042226;28;20040;-79
2022/07/23 01:14:26;;;;;;;4.30;3.10;;;13.40;99.90;;;;;;5048411;28;20117;-79
2022/07/23 01:16:52;;;;;;;3.40;3.10;;;13.40;99.90;;;;;;5045339;28;20126;-79
2022/07/23 01:19:18;;;;;;;3.13;2.80;;;13.40;99.90;;;;;;5043768;28;20044;-79
2022/07/23 01:21:47;;;;;;;5.77;3.40;;;13.40;99.90;;;;;;5037129;28;20045;-79
2022/07/23 01:24:16;;;;;;;4.70;3.20;;;13.40;99.90;;;;;;5058870;28;20466;-79
2022/07/23 01:26:51;;;;;;;4.30;3.83;;;13.30;99.90;;;;;;5027861;28;20388;-79
2022/07/23 01:29:21;;;;;;;4.77;3.30;;;13.30;99.90;;;;;;5045824;28;20055;-80
2022/07/23 01:31:47;;;;;;;5.50;3.70;;;13.30;99.90;;;;;;5040178;28;20041;-79
2022/07/23 01:34:13;;;;;;;4.00;3.60;;;13.20;99.90;;;;;;5043982;28;20048;-80
2022/07/23 01:36:39;;;;;;;2.60;2.40;;;13.20;99.90;;;;;;5045922;28;20074;-79
2022/07/23 01:39:07;;;;;;;2.43;2.00;;;13.20;99.90;;;;;;5037603;28;22631;-82
2022/07/23 01:41:34;;;;;;;3.80;2.60;;;13.10;99.90;;;;;;5028995;28;20124;-79
2022/07/23 01:44:00;;;;;;;3.67;2.40;;;13.10;99.90;;;;;;5046082;28;20048;-78
2022/07/23 01:46:26;;;;;;;2.50;2.17;;;13.00;99.90;;;;;;5046989;28;20515;-79
2022/07/23 01:48:52;;;;;;;2.23;2.00;;;12.90;99.90;;;;;;5049062;28;20047;-80
2022/07/23 01:51:59;;;;;;;3.60;2.73;;;12.90;99.90;;;;;;5037103;28;20048;-79
2022/07/23 01:54:24;;;;;;;5.03;1.97;;;12.90;99.90;;;;;;5045847;28;20130;-80
2022/07/23 01:56:52;;;;;;;2.10;1.70;;;12.90;99.90;;;;;;5042742;28;20496;-79
2022/07/23 01:59:19;;;;;;;2.80;1.90;;;12.90;99.90;;;;;;5046224;28;20044;-80
2022/07/23 02:01:45;;;;;;;2.83;2.13;;;12.90;99.90;;;;;;5044634;28;20036;-79
2022/07/23 02:04:11;;;;;;;2.30;2.10;;;12.80;99.90;;;;;;5042609;28;20458;-79
2022/07/23 02:06:38;;;;;;;3.30;2.60;;;12.80;99.90;;;;;;5065587;28;20082;-79
2022/07/23 02:09:04;;;;;;;5.13;2.80;;;12.80;99.90;;;;;;5051343;28;20056;-80
2022/07/23 02:11:29;;;;;;;2.33;2.10;;;12.70;99.90;;;;;;5048485;28;20083;-79
2022/07/23 02:13:56;;;;;;;3.60;2.40;;;12.70;99.90;;;;;;5045038;28;20052;-81
2022/07/23 02:16:22;;;;;;;4.20;2.60;;;12.70;99.90;;;;;;5044243;28;20049;-79
2022/07/23 02:18:48;;;;;;;2.47;2.20;;;12.60;99.90;;;;;;5048395;28;20967;-80
2022/07/23 02:21:13;;;;;;;3.40;2.40;;;12.60;99.90;;;;;;5049302;28;20057;-80
2022/07/23 02:23:39;;;;;;;4.37;2.60;;;12.60;99.90;;;;;;5049372;28;20040;-79
2022/07/23 02:26:05;;;;;;;3.50;2.60;;;12.50;99.90;;;;;;5048667;28;20045;-80
2022/07/23 02:28:32;;;;;;;4.30;2.30;;;12.50;99.90;;;;;;5039957;28;20036;-80
2022/07/23 02:30:59;;;;;;;2.73;2.33;;;12.50;99.90;;;;;;5031793;28;20045;-80
2022/07/23 02:33:25;;;;;;;2.60;1.67;;;12.40;99.90;;;;;;5043398;28;20463;-81
2022/07/23 02:35:51;;;;;;;1.20;1.10;;;12.40;99.90;;;;;;5047328;28;20108;-80
2022/07/23 02:38:18;;;;;;;3.00;1.83;;;12.40;99.90;;;;;;5064370;28;20037;-80
2022/07/23 02:40:45;;;;;;;7.73;3.30;;;12.30;99.90;;;;;;5026724;28;20109;-81
2022/07/23 02:43:12;;;;;;;7.63;3.37;;;12.30;99.90;;;;;;5048348;28;20036;-79
2022/07/23 02:45:38;;;;;;;3.20;2.50;;;12.30;99.90;;;;;;5052159;28;20048;-80
2022/07/23 02:48:06;;;;;;;2.50;2.30;;;12.30;99.90;;;;;;5047927;28;20037;-80
2022/07/23 02:50:31;;;;;;;4.37;2.30;;;12.20;99.90;;;;;;5061506;28;20396;-82
2022/07/23 02:52:59;;;;;;;2.77;1.93;;;12.20;99.90;;;;;;5044079;28;20462;-80
2022/07/23 02:55:25;;;;;;;3.03;2.60;;;12.20;99.90;;;;;;5049173;28;20048;-80
2022/07/23 02:57:52;;;;;;;4.37;3.20;;;12.20;99.90;;;;;;5051447;28;21645;-82
2022/07/23 03:00:18;;;;;;;2.87;2.50;;;12.10;99.90;;;;;;5036254;28;20064;-81
2022/07/23 03:02:43;;;;;;;4.50;2.60;;;12.10;99.90;;;;;;5061937;28;20080;-79
2022/07/23 03:05:10;;;;;;;7.10;2.30;;;12.00;99.90;;;;;;5063235;28;20471;-80
2022/07/23 03:07:39;;;;;;;3.87;3.27;;;12.00;99.90;;;;;;5050663;28;20059;-80
2022/07/23 03:10:05;;;;;;;3.50;2.23;;;11.90;99.90;;;;;;5062267;28;20045;-81
2022/07/23 03:12:31;;;;;;;2.70;2.10;;;11.90;99.90;;;;;;5041739;28;20041;-80
2022/07/23 03:14:56;;;;;;;1.23;1.00;;;11.90;99.90;;;;;;5037688;28;20044;-81
2022/07/23 03:17:22;;;;;;;1.90;0.70;;;11.90;99.90;;;;;;5052537;28;20613;-81
2022/07/23 03:19:48;;;;;;;3.43;1.10;;;11.90;99.90;;;;;;5050784;28;20048;-80
2022/07/23 03:22:15;;;;;;;1.80;1.10;;;11.80;99.90;;;;;;5044521;28;20464;-80
2022/07/23 03:24:56;;;;;;;3.97;1.50;;;11.80;99.90;;;;;;5050172;28;20048;-80
2022/07/23 03:27:32;;;;;;;3.20;2.80;;;11.80;99.90;;;;;;5046676;28;20052;-80
2022/07/23 03:29:59;;;;;;;5.60;2.30;;;11.80;99.90;;;;;;5045173;28;20054;-79
2022/07/23 03:32:26;;;;;;;28.27;3.80;;;11.80;99.90;;;;;;5031229;28;20042;-80
2022/07/23 03:34:52;;;;;;;3.43;3.07;;;11.70;99.90;;;;;;5048447;28;20040;-79
2022/07/23 03:37:20;;;;;;;6.23;3.80;;;11.70;99.90;;;;;;5050620;28;20040;-81
2022/07/23 03:39:46;;;;;;;4.43;2.70;;;11.70;99.90;;;;;;5047188;28;20087;-80
2022/07/23 03:42:12;;;;;;;4.70;2.40;;;11.70;99.90;;;;;;5054011;28;20568;-80
2022/07/23 03:44:38;;;;;;;3.57;1.50;;;11.70;99.90;;;;;;5048449;28;20584;-80
2022/07/23 03:47:04;;;;;;;3.50;1.27;;;11.70;99.90;;;;;;5047892;28;20044;-80
2022/07/23 03:49:30;;;;;;;2.30;1.43;;;11.70;99.90;;;;;;5053509;28;20052;-80
2022/07/23 03:51:56;;;;;;;2.53;1.40;;;11.70;99.90;;;;;;5039390;28;20048;-80
2022/07/23 03:54:23;;;;;;;2.33;1.20;;;11.70;99.90;;;;;;5039878;28;20037;-80
2022/07/23 03:56:49;;;;;;;4.27;0.93;;;11.70;99.90;;;;;;5041391;28;20077;-80
2022/07/23 03:59:15;;;;;;;3.00;1.00;;;11.70;99.90;;;;;;5036801;28;20071;-80
2022/07/23 04:01:40;;;;;;;1.17;0.90;;;11.70;99.90;;;;;;5045779;28;20047;-80
2022/07/23 04:04:08;;;;;;;1.33;0.90;;;11.60;99.90;;;;;;5052734;28;20527;-80
2022/07/23 04:06:34;;;;;;;4.43;1.10;;;11.60;99.90;;;;;;5036222;28;20554;-80
2022/07/23 04:09:00;;;;;;;2.70;2.10;;;11.60;99.90;;;;;;5058029;28;20037;-80
2022/07/23 04:11:30;;;;;;;5.30;2.17;;;11.60;99.90;;;;;;5047941;28;20110;-80
2022/07/23 04:13:56;;;;;;;4.03;1.97;;;11.60;99.90;;;;;;5051297;28;20135;-82
2022/07/23 04:16:22;;;;;;;3.47;1.87;;;11.50;99.90;;;;;;5033919;28;20068;-81
2022/07/23 04:18:52;;;;;;;3.50;2.27;;;11.50;99.90;;;;;;5052314;28;20045;-80
2022/07/23 04:21:20;;;;;;;6.60;4.67;;;11.50;99.90;;;;;;5038080;28;20040;-80
2022/07/23 04:23:47;;;;;;;4.90;3.13;;;11.50;99.90;;;;;;5028806;28;20479;-80
2022/07/23 04:26:13;;;;;;;5.83;3.20;;;11.50;99.90;;;;;;5041088;28;20488;-80
2022/07/23 04:28:41;;;;;;;5.07;2.33;;;11.60;99.90;;;;;;5044890;28;20045;-80
2022/07/23 04:31:06;;;;;;;2.97;1.80;;;11.60;99.90;;;;;;5042172;28;20572;-82
2022/07/23 04:33:34;;;;;;;3.80;2.33;;;11.70;99.90;;;;;;5053206;28;20041;-80
2022/07/23 04:36:04;;;;;;;5.07;2.70;;;11.70;99.90;;;;;;5046400;28;20040;-80
2022/07/23 04:38:30;;;;;;;4.37;2.70;;;11.70;99.90;;;;;;5038487;28;20048;-80
2022/07/23 04:41:00;;;;;;;7.83;2.53;;;11.80;99.90;;;;;;5042458;28;20456;-79
2022/07/23 04:43:27;;;;;;;3.57;3.07;;;11.80;99.90;;;;;;5042642;28;20709;-80
2022/07/23 04:45:55;;;;;;;4.63;3.40;;;11.80;99.90;;;;;;5045115;28;20048;-79
2022/07/23 04:48:20;;;;;;;9.63;3.87;;;11.80;99.90;;;;;;5038329;28;20064;-80
2022/07/23 04:50:49;;;;;;;7.80;4.97;;;11.90;99.90;;;;;;5043970;28;20055;-80
2022/07/23 04:53:22;;;;;;;6.60;4.23;;;11.90;99.90;;;;;;5037833;28;20040;-80
2022/07/23 04:55:49;;;;;;;8.17;3.90;;;12.00;99.90;;;;;;5037872;28;20041;-80
2022/07/23 04:58:15;;;;;;;8.83;5.77;;;12.00;99.90;;;;;;5030627;28;20109;-81
2022/07/23 05:00:41;;;;;;;10.00;5.67;;;12.10;99.90;;;;;;5034939;28;20040;-81
2022/07/23 05:03:08;;;;;;;8.27;5.70;;;12.10;99.90;;;;;;5019964;28;20078;-80
2022/07/23 05:05:35;;;;;;;8.47;5.83;;;12.20;99.90;;;;;;5039225;28;20048;-80
2022/07/23 05:08:09;;;;;;;10.03;5.43;;;12.20;99.90;;;;;;5039056;28;20040;-80
2022/07/23 05:10:37;;;;;;;11.83;6.50;;;12.40;99.90;;;;;;5031700;28;20123;-79
2022/07/23 05:13:03;;;;;;;10.40;6.63;;;12.40;99.90;;;;;;5034331;28;20147;-80
2022/07/23 05:15:29;;;;;;;7.97;5.97;;;12.40;99.90;;;;;;5051118;28;20044;-80
2022/07/23 05:17:55;;;;;;;11.03;6.23;;;12.50;99.90;;;;;;5057832;28;20119;-81
2022/07/23 05:20:22;;;;;;;9.17;5.93;;;12.60;99.90;;;;;;5037687;28;20040;-80
2022/07/23 05:22:48;;;;;;;9.00;6.07;;;12.60;99.90;;;;;;5049256;28;20059;-81
2022/07/23 05:25:14;;;;;;;8.87;6.00;;;12.70;99.90;;;;;;5037180;28;20468;-79
2022/07/23 05:27:39;;;;;;;8.73;6.10;;;12.80;99.90;;;;;;5056790;28;20161;-80
2022/07/23 05:30:06;;;;;;;10.70;5.83;;;12.80;99.90;;;;;;5033004;28;20072;-79
2022/07/23 05:32:36;;;;;;;11.40;5.90;;;12.90;99.90;;;;;;5044046;28;20048;-79
2022/07/23 05:35:11;;;;;;;9.53;5.93;;;13.00;99.90;;;;;;5050003;28;20083;-79
2022/07/23 05:37:41;;;;;;;11.93;7.70;;;13.10;99.90;;;;;;5039482;28;20708;-80
2022/07/23 05:40:09;;;;;;;8.87;6.47;;;13.10;99.90;;;;;;5038075;28;20564;-79
2022/07/23 05:42:35;;;;;;;12.57;6.50;;;13.20;99.90;;;;;;5045192;28;20114;-79
2022/07/23 05:45:02;;;;;;;12.43;6.73;;;13.30;99.90;;;;;;5044438;28;20055;-80
2022/07/23 05:47:27;;;;;;;7.70;6.30;;;13.30;99.90;;;;;;5025831;28;20040;-79
2022/07/23 05:49:54;;;;;;;9.77;7.00;;;13.50;99.90;;;;;;5046827;28;20045;-79
2022/07/23 05:52:26;;;;;;;12.13;6.83;;;13.50;99.90;;;;;;5034813;28;20048;-80
2022/07/23 05:55:13;;;;;;;9.47;6.50;;;13.60;99.90;;;;;;5050086;28;20045;-79
2022/07/23 05:57:41;;;;;;;14.30;6.77;;;13.70;99.90;;;;;;5034130;28;20056;-80
2022/07/23 06:00:08;;;;;;;8.53;5.40;;;13.90;99.90;;;;;;5033878;28;20483;-79
2022/07/23 06:02:39;;;;;;;9.80;6.17;;;14.10;99.90;;;;;;5045622;28;20115;-79
2022/07/23 06:05:07;;;;;;;8.67;5.50;;;14.30;99.90;;;;;;5028441;28;20036;-79
2022/07/23 06:07:33;;;;;;;5.77;4.47;;;14.40;99.90;;;;;;5023100;28;20036;-79
2022/07/23 06:09:59;;;;;;;7.30;4.03;;;14.50;99.90;;;;;;5043244;28;20632;-78
2022/07/23 06:12:26;;;;;;;5.13;4.03;;;14.60;99.90;;;;;;5040674;28;21850;-79
2022/07/23 06:14:52;;;;;;;7.87;4.70;;;14.60;99.90;;;;;;5034430;28;20049;-79
2022/07/23 06:17:18;;;;;;;4.97;3.80;;;14.60;99.90;;;;;;5040998;28;20131;-79
2022/07/23 06:19:44;;;;;;;7.40;3.57;;;14.70;99.90;;;;;;5040631;28;20119;-80
2022/07/23 06:22:09;;;;;;;5.73;3.43;;;14.80;99.90;;;;;;5032090;28;20396;-80
2022/07/23 06:24:35;;;;;;;6.90;3.70;;;14.90;99.90;;;;;;5038434;28;20103;-78
2022/07/23 06:27:01;;;;;;;7.43;3.40;;;14.90;99.90;;;;;;5044904;28;20738;-79
2022/07/23 06:29:28;;;;;;;6.33;3.33;;;14.90;99.90;;;;;;5037218;28;20072;-78
2022/07/23 06:31:54;;;;;;;10.10;3.10;;;15.00;99.90;;;;;;5036354;28;20041;-79
2022/07/23 06:34:20;;;;;;;5.07;3.20;;;15.00;99.90;;;;;;5038380;28;20049;-79
2022/07/23 06:36:46;;;;;;;4.97;2.70;;;15.10;99.90;;;;;;5064145;28;20045;-78
2022/07/23 06:39:11;;;;;;;5.07;2.97;;;15.10;99.90;;;;;;5043857;28;20454;-79
2022/07/23 06:41:37;;;;;;;3.40;2.43;;;15.20;99.90;;;;;;5031081;28;20048;-78
2022/07/23 06:44:03;;;;;;;7.40;2.30;;;15.20;99.90;;;;;;5043810;28;20044;-78
2022/07/23 06:46:32;;;;;;;8.40;2.90;;;15.30;99.90;;;;;;5044698;28;20043;-78
2022/07/23 06:48:59;;;;;;;5.63;2.10;;;15.40;99.90;;;;;;5036396;28;20040;-78
2022/07/23 06:51:27;;;;;;;7.87;2.30;;;15.40;99.90;;;;;;5065143;28;20047;-78
2022/07/23 06:53:53;;;;;;;5.20;1.90;;;15.50;99.90;;;;;;5044860;28;20049;-79
2022/07/23 06:56:20;;;;;;;3.57;1.50;;;15.50;99.90;;;;;;5042242;28;20491;-79
2022/07/23 06:58:45;;;;;;;5.90;1.80;;;15.60;99.90;;;;;;5025652;28;20097;-79
2022/07/23 07:01:11;;;;;;;5.27;1.90;;;15.70;99.90;;;;;;5046631;28;20130;-79
2022/07/23 07:03:39;;;;;;;3.93;1.90;;;16.00;99.90;;;;;;5036277;28;20045;-79
2022/07/23 07:06:05;;;;;;;3.30;1.37;;;16.20;99.90;;;;;;5061893;28;20048;-80
2022/07/23 07:08:31;;;;;;;3.27;1.40;;;16.20;99.90;;;;;;5042706;28;20047;-79
2022/07/23 07:10:56;;;;;;;2.53;1.30;;;16.30;99.90;;;;;;5046910;28;20529;-80
2022/07/23 07:13:22;;;;;;;4.43;1.43;;;16.30;99.90;;;;;;5045045;28;20606;-78
2022/07/23 07:15:48;;;;;;;3.50;1.33;;;16.40;99.90;;;;;;5048632;28;20463;-78
2022/07/23 07:18:13;;;;;;;3.33;1.23;;;16.40;99.90;;;;;;5039283;28;20044;-79
2022/07/23 07:20:41;;;;;;;2.23;1.10;;;16.50;99.90;;;;;;5060217;28;20033;-77
2022/07/23 07:23:06;;;;;;;2.73;1.30;;;16.60;99.90;;;;;;5041655;28;20075;-79
2022/07/23 07:25:32;;;;;;;2.77;1.10;;;16.60;99.90;;;;;;5041200;28;20049;-78
2022/07/23 07:27:58;;;;;;;3.17;1.00;;;16.60;99.90;;;;;;5064379;28;20037;-78
2022/07/23 07:30:24;;;;;;;2.60;1.03;;;16.60;99.90;;;;;;5032836;28;20083;-80
2022/07/23 07:32:50;;;;;;;2.37;1.10;;;16.60;99.90;;;;;;5024345;28;20546;-80
2022/07/23 07:35:16;;;;;;;3.37;1.10;;;16.70;99.90;;;;;;5040997;28;20045;-79
2022/07/23 07:37:43;;;;;;;5.57;1.17;;;16.80;99.90;;;;;;5042612;28;20404;-80
2022/07/23 07:40:09;;;;;;;4.83;1.60;;;16.80;99.90;;;;;;5063565;28;20082;-79
2022/07/23 07:42:44;;;;;;;3.40;1.30;;;16.90;99.90;;;;;;5042750;28;20509;-79
2022/07/23 07:45:10;;;;;;;3.87;1.20;;;17.00;99.90;;;;;;5038845;28;20102;-79
2022/07/23 07:47:35;;;;;;;4.17;1.57;;;17.10;99.90;;;;;;5055478;28;20496;-78
2022/07/23 07:50:01;;;;;;;1.63;1.00;;;17.30;99.90;;;;;;5035987;28;20048;-79
2022/07/23 07:52:27;;;;;;;1.77;1.23;;;17.30;99.90;;;;;;5033880;28;20856;-79
2022/07/23 07:54:54;;;;;;;1.67;0.83;;;17.40;99.90;;;;;;5062537;28;20563;-79
2022/07/23 07:57:20;;;;;;;1.97;0.90;;;17.40;99.90;;;;;;5061317;28;20041;-79
2022/07/23 07:59:46;;;;;;;1.77;0.73;;;17.50;99.90;;;;;;5056146;28;20044;-78
2022/07/23 08:02:11;;;;;;;3.37;1.00;;;17.70;99.90;;;;;;5055687;28;20054;-80
2022/07/23 08:04:37;;;;;;;2.90;0.87;;;17.70;99.90;;;;;;5043293;28;20418;-80
2022/07/23 08:07:03;;;;;;;4.13;1.00;;;17.70;99.90;;;;;;5057219;28;20052;-79
2022/07/23 08:09:29;;;;;;;2.30;1.00;;;17.70;99.90;;;;;;5044223;28;20639;-79
2022/07/23 08:11:56;;;;;;;4.60;0.90;;;17.70;99.90;;;;;;5058597;28;20048;-80
2022/07/23 08:14:22;;;;;;;1.10;0.67;;;17.80;99.90;;;;;;5053042;28;20467;-79
2022/07/23 08:16:47;;;;;;;2.73;0.70;;;17.90;99.90;;;;;;5058806;28;20121;-79
2022/07/23 08:19:13;;;;;;;3.53;0.80;;;18.00;99.90;;;;;;5041434;28;20072;-80
2022/07/23 08:21:39;;;;;;;2.50;0.77;;;18.10;99.90;;;;;;5043945;28;20411;-78
2022/07/23 08:24:05;;;;;;;2.60;0.60;;;18.10;99.90;;;;;;5057657;28;20037;-79
2022/07/23 08:26:31;;;;;;;2.20;0.80;;;18.10;99.90;;;;;;5037966;28;20087;-78
2022/07/23 08:28:58;;;;;;;3.50;0.70;;;18.10;99.90;;;;;;5036801;28;20128;-79
2022/07/23 08:31:23;;;;;;;3.27;0.70;;;18.10;99.90;;;;;;5028512;28;20057;-79
2022/07/23 08:33:49;;;;;;;3.20;0.70;;;18.10;99.90;;;;;;5037327;28;20044;-78
2022/07/23 08:36:15;;;;;;;3.70;0.73;;;18.20;99.90;;;;;;5042157;28;20545;-78
2022/07/23 08:38:43;;;;;;;4.17;0.70;;;18.10;99.90;;;;;;5042146;28;20484;-79
2022/07/23 08:41:10;;;;;;;2.37;0.93;;;18.10;99.90;;;;;;5039915;28;20075;-79
2022/07/23 08:43:36;;;;;;;4.90;0.80;;;18.10;99.90;;;;;;5045235;28;20036;-81
2022/07/23 08:46:04;;;;;;;4.97;0.70;;;18.30;99.90;;;;;;5061087;28;20068;-80
2022/07/23 08:48:31;;;;;;;1.50;0.50;;;18.50;99.90;;;;;;5054981;28;20585;-78
2022/07/23 08:50:58;;;;;;;0.80;0.50;;;18.60;99.90;;;;;;5056641;28;20041;-79
2022/07/23 08:53:26;;;;;;;3.00;0.67;;;18.60;99.90;;;;;;5043199;28;20044;-79
2022/07/23 08:55:55;;;;;;;1.93;0.80;;;18.70;99.90;;;;;;5063166;28;20155;-79
2022/07/23 08:58:21;;;;;;;1.23;0.50;;;18.80;99.90;;;;;;5036109;28;20047;-79
2022/07/23 09:00:48;;;;;;;3.63;0.87;;;18.90;99.90;;;;;;5064329;28;20048;-80
2022/07/23 09:03:18;;;;;;;2.87;0.70;;;19.00;99.90;;;;;;5017845;28;20036;-79
2022/07/23 09:05:44;;;;;;;4.50;0.90;;;19.10;99.90;;;;;;5053439;28;20040;-79
2022/07/23 09:08:11;;;;;;;2.07;0.67;;;19.20;99.90;;;;;;5033351;28;20117;-79
2022/07/23 09:10:49;;;;;;;3.03;0.60;;;19.30;99.90;;;;;;5052938;28;20045;-79
2022/07/23 09:13:34;;;;;;;2.03;0.73;;;19.50;99.90;;;;;;5060533;28;20473;-79
2022/07/23 09:16:03;;;;;;;2.28;0.60;;;19.70;99.90;;;;;;5041699;28;20044;-79
2022/07/23 09:18:33;;;;;;;8.23;0.90;;;19.70;99.90;;;;;;5048097;28;20041;-79
2022/07/23 09:21:16;;;;;;;0.83;0.40;;;19.80;99.90;;;;;;5039927;28;20052;-79
2022/07/23 09:23:44;;;;;;;1.23;0.52;;;19.90;99.90;;;;;;5058016;28;20051;-78
2022/07/23 09:26:35;;;;;;;1.60;0.70;;;19.90;99.90;;;;;;5054872;28;20099;-78
2022/07/23 09:29:07;;;;;;;2.53;0.60;;;20.00;99.90;;;;;;5014456;28;20413;-80
2022/07/23 09:31:42;;;;;;;5.70;0.70;;;20.10;99.90;;;;;;5037943;28;20041;-80
2022/07/23 09:34:12;;;;;;;3.67;0.80;;;20.20;99.90;;;;;;5050881;28;20040;-79
2022/07/23 09:36:39;;;;;;;1.03;0.60;;;20.30;99.90;;;;;;5062197;28;20056;-79
2022/07/23 09:39:05;;;;;;;1.17;0.50;;;20.60;99.90;;;;;;5050754;28;20069;-80
2022/07/23 09:41:37;;;;;;;2.23;0.73;;;21.00;99.90;;;;;;5044351;28;20136;-79
2022/07/23 09:44:16;;;;;;;4.53;0.90;;;21.20;99.90;;;;;;5029679;28;20087;-78
2022/07/23 09:46:43;;;;;;;2.43;0.60;;;21.20;99.90;;;;;;5049453;28;20040;-78
2022/07/23 09:49:22;;;;;;;1.53;0.50;;;21.30;99.90;;;;;;5053075;28;20041;-79
2022/07/23 09:51:51;;;;;;;1.43;0.60;;;21.30;99.90;;;;;;5023705;28;20045;-78
2022/07/23 09:54:26;;;;;;;1.67;0.75;;;21.20;99.90;;;;;;5038935;28;20052;-79
2022/07/23 09:56:55;;;;;;;7.63;0.80;;;21.10;99.90;;;;;;5040759;28;20044;-78
2022/07/23 09:59:24;;;;;;;1.50;0.60;;;21.10;99.90;;;;;;5062691;28;20063;-79
2022/07/23 10:01:53;;;;;;;1.50;0.60;;;21.10;99.90;;;;;;5034595;28;20047;-78
2022/07/23 10:04:22;;;;;;;1.53;0.67;;;21.00;99.90;;;;;;5035992;28;20535;-78
2022/07/23 10:07:09;;;;;;;0.88;0.50;;;21.30;99.90;;;;;;5062484;28;20060;-80
2022/07/23 10:09:54;;;;;;;1.92;0.70;;;22.10;99.90;;;;;;5066799;28;20045;-78
2022/07/23 10:15:18;;;;;;;3.50;0.60;;;22.20;98.40;;;;;;5043970;28;20131;-79
2022/07/23 10:17:44;;;;;;;3.05;0.70;;;22.00;98.70;;;;;;5039782;28;20049;-79
2022/07/23 10:20:11;;;;;;;1.95;0.60;;;22.20;99.10;;;;;;5041591;28;20120;-80
2022/07/23 10:22:42;;;;;;;2.55;0.60;;;22.70;98.70;;;;;;5043437;28;20451;-80
2022/07/23 10:25:13;;;;;;;1.60;0.80;;;23.20;97.40;;;;;;5040783;28;20116;-79
2022/07/23 10:28:02;;;;;;;1.50;0.65;;;23.60;97.00;;;;;;5041968;28;20099;-79
2022/07/23 10:30:33;;;;;;;2.58;0.85;;;23.80;96.50;;;;;;5058278;28;20040;-80
2022/07/23 10:33:14;;;;;;;1394.30;101.32;;;23.90;96.40;;;;;;5054322;28;20044;-77
2022/07/23 10:35:47;;;;;;;2.10;0.88;;;24.00;95.70;;;;;;5058616;28;20041;-77
2022/07/23 10:38:20;;;;;;;1050.18;100.47;;;24.20;95.00;;;;;;5043483;28;20044;-80
2022/07/23 10:41:04;;;;;;;3.47;0.82;;;24.20;94.60;;;;;;5060091;28;20040;-80
2022/07/23 10:43:31;;;;;;;195.68;19.17;;;24.10;94.10;;;;;;5035981;28;20045;-79
2022/07/23 10:46:24;;;;;;;7.40;1.00;;;24.00;94.80;;;;;;5062718;28;20041;-79
2022/07/23 10:49:21;;;;;;;40.65;8.23;;;24.10;95.60;;;;;;5058714;28;20044;-79
2022/07/23 10:52:19;;;;;;;87.72;9.50;;;24.00;95.10;;;;;;5059607;28;20033;-81
2022/07/23 10:54:45;;;;;;;6.68;1.00;;;23.90;94.70;;;;;;5059967;28;20047;-79
2022/07/23 10:57:12;;;;;;;4.05;0.60;;;23.70;95.20;;;;;;5045092;28;20541;-78
2022/07/23 11:00:17;;;;;;;7.95;1.05;;;23.50;94.70;;;;;;5064227;28;20072;-79
2022/07/23 11:02:45;;;;;;;2.70;1.15;;;23.70;94.30;;;;;;5087100;28;20036;-77
2022/07/23 11:05:13;;;;;;;86.63;9.90;;;23.80;95.00;;;;;;5042691;28;20496;-79
2022/07/23 11:08:15;;;;;;;4.30;1.33;;;23.80;94.80;;;;;;5026971;28;20037;-77
2022/07/23 11:10:44;;;;;;;6.95;0.90;;;23.90;94.10;;;;;;5023694;28;20040;-78
2022/07/23 11:13:32;;;;;;;2.40;0.70;;;23.90;94.90;;;;;;5061319;28;20045;-78
2022/07/23 11:16:08;;;;;;;2.22;1.02;;;24.10;94.00;;;;;;5053955;28;20052;-79
2022/07/23 11:18:58;;;;;;;2.58;0.80;;;24.00;94.10;;;;;;5065065;28;20040;-78
2022/07/23 11:21:43;;;;;;;4.32;0.88;;;24.00;94.00;;;;;;5061233;28;20408;-77
2022/07/23 11:24:11;;;;;;;13.88;2.05;;;24.30;94.10;;;;;;5066363;28;20037;-79
2022/07/23 11:27:01;;;;;;;5.78;1.20;;;24.50;94.50;;;;;;5065447;28;20066;-79
2022/07/23 11:29:44;;;;;;;4.38;1.27;;;24.90;93.70;;;;;;5042559;28;20040;-78
2022/07/23 11:32:22;;;;;;;1999.90;737.38;;;24.80;93.50;;;;;;5048258;28;20040;-78
2022/07/23 11:34:50;;;;;;;18.77;3.60;;;24.70;93.80;;;;;;5046790;28;20044;-77
2022/07/23 11:37:29;;;;;;;3.78;1.13;;;24.40;93.50;;;;;;5059869;28;20048;-79
2022/07/23 11:39:55;;;;;;;1999.90;260.52;;;24.40;93.70;;;;;;5028866;28;20037;-82
2022/07/23 11:42:23;;;;;;;4.82;1.50;;;24.80;94.00;;;;;;5064550;28;20519;-79
2022/07/23 11:44:50;;;;;;;6.78;1.15;;;24.70;93.10;;;;;;5062375;28;20041;-78
2022/07/23 11:47:22;;;;;;;2.50;1.10;;;24.70;93.10;;;;;;5037520;28;20040;-78
2022/07/23 11:49:53;;;;;;;1999.90;781.50;;;24.50;92.40;;;;;;5048220;28;20045;-79
2022/07/23 11:52:19;;;;;;;61.45;11.77;;;24.20;93.30;;;;;;5028615;28;20096;-78
2022/07/23 11:54:48;;;;;;;54.58;8.65;;;24.20;94.10;;;;;;5056121;28;20124;-78
2022/07/23 11:57:14;;;;;;;8.80;1.88;;;24.20;94.10;;;;;;5033541;28;20045;-79
2022/07/23 11:59:43;;;;;;;2.83;1.52;;;24.30;94.80;;;;;;5043340;28;20059;-78
2022/07/23 12:02:09;;;;;;;1.85;1.20;;;24.80;94.60;;;;;;5060991;28;20048;-78
2022/07/23 12:04:38;;;;;;;3.33;1.20;;;25.10;94.40;;;;;;5064711;28;20451;-78
2022/07/23 12:07:20;;;;;;;23.92;4.57;;;25.10;92.90;;;;;;5051779;28;20037;-79
2022/07/23 12:09:46;;;;;;;4.53;1.30;;;25.00;92.90;;;;;;5043582;28;20084;-76
2022/07/23 12:12:11;;;;;;;4.18;1.10;;;24.80;93.10;;;;;;5046277;28;20072;-78
2022/07/23 12:14:49;;;;;;;3.10;1.30;;;25.20;93.10;;;;;;5037469;28;20086;-77
2022/07/23 12:17:15;;;;;;;1999.90;334.13;;;25.30;92.40;;;;;;5057976;28;20051;-77
2022/07/23 12:19:41;;;;;;;62.97;8.10;;;25.20;92.50;;;;;;5050589;28;20104;-79
2022/07/23 12:22:07;;;;;;;3.40;1.20;;;25.10;93.00;;;;;;5048743;28;20064;-78
2022/07/23 12:24:55;;;;;;;7.28;1.60;;;25.00;93.20;;;;;;5043036;28;20033;-78
2022/07/23 12:27:21;;;;;;;5.32;1.25;;;24.90;93.30;;;;;;5042402;28;20049;-79
2022/07/23 12:29:48;;;;;;;3.05;1.35;;;24.90;92.70;;;;;;5051267;28;20074;-78
2022/07/23 12:32:19;;;;;;;21.05;2.47;;;24.70;92.90;;;;;;5046607;28;20053;-78
2022/07/23 12:34:45;;;;;;;6.97;1.42;;;24.50;93.40;;;;;;5058383;28;20036;-79
2022/07/23 12:37:28;;;;;;;2.45;1.30;;;25.00;93.70;;;;;;5045320;28;20059;-79
2022/07/23 12:39:54;;;;;;;2.20;1.20;;;25.30;93.00;;;;;;5059656;28;20051;-77
2022/07/23 12:42:20;;;;;;;2.60;1.25;;;25.40;93.20;;;;;;5053734;28;20519;-78
2022/07/23 12:45:11;;;;;;;2.65;1.40;;;25.30;93.20;;;;;;5041138;28;20040;-77
2022/07/23 12:47:54;;;;;;;8.20;1.30;;;25.10;93.20;;;;;;5037706;28;20060;-78
2022/07/23 12:50:37;;;;;;;2.95;1.30;;;25.10;93.50;;;;;;5036919;28;20044;-77
2022/07/23 12:53:05;;;;;;;3.90;1.40;;;25.40;93.80;;;;;;5057089;28;20638;-77
2022/07/23 12:55:31;;;;;;;4.43;1.50;;;25.70;93.60;;;;;;5040356;28;20052;-77
2022/07/23 12:58:11;;;;;;;5.35;1.20;;;25.60;92.60;;;;;;5048262;28;20063;-77